createdAt,value
2018-04-06T00:01:23.416Z,7.17
2018-04-06T00:03:54.502Z,11.33
2018-04-06T00:06:25.425Z,7.37
2018-04-06T00:08:56.201Z,8.90
2018-04-06T00:11:27.299Z,11.27
2018-04-06T00:13:58.201Z,13.07
2018-04-06T00:16:28.680Z,9.10
2018-04-06T00:18:59.671Z,9.50
2018-04-06T00:21:31.205Z,8.03
2018-04-06T00:24:02.708Z,10.50
2018-04-06T00:26:34.494Z,7.47
2018-04-06T00:29:05.553Z,13.10
2018-04-06T00:31:36.807Z,11.80
2018-04-06T00:34:07.776Z,9.73
2018-04-06T00:36:38.968Z,11.20
2018-04-06T00:39:10.014Z,10.30
2018-04-06T00:41:41.369Z,10.47
2018-04-06T00:44:12.403Z,9.07
2018-04-06T00:46:43.134Z,11.53
2018-04-06T00:49:14.416Z,13.03
2018-04-06T00:51:45.474Z,16.03
2018-04-06T00:54:16.646Z,10.27
2018-04-06T00:56:47.602Z,11.10
2018-04-06T00:59:18.726Z,9.63
2018-04-06T01:01:50.052Z,11.40
2018-04-06T01:04:21.197Z,8.97
2018-04-06T01:06:52.850Z,12.53
2018-04-06T01:09:24.660Z,8.57
2018-04-06T01:11:55.835Z,9.63
2018-04-06T01:14:26.985Z,15.07
2018-04-06T01:16:58.294Z,12.17
2018-04-06T01:19:29.610Z,11.90
2018-04-06T01:22:00.851Z,11.23
2018-04-06T01:24:31.997Z,12.80
2018-04-06T01:27:03.478Z,10.83
2018-04-06T01:29:34.381Z,10.70
2018-04-06T01:32:05.530Z,13.07
2018-04-06T01:34:36.607Z,13.13
2018-04-06T01:37:07.934Z,15.53
2018-04-06T01:39:38.951Z,11.03
2018-04-06T01:42:10.640Z,12.87
2018-04-06T01:44:41.696Z,12.27
2018-04-06T01:47:13.785Z,12.17
2018-04-06T01:49:46.377Z,14.53
2018-04-06T01:52:18.247Z,10.23
2018-04-06T01:54:50.725Z,15.13
2018-04-06T01:57:22.254Z,18.30
2018-04-06T01:59:53.844Z,14.73
2018-04-06T02:02:24.848Z,16.73
2018-04-06T02:04:56.357Z,14.10
2018-04-06T02:07:27.874Z,18.20
2018-04-06T02:09:58.960Z,12.93
2018-04-06T02:12:30.131Z,18.13
2018-04-06T02:15:01.488Z,17.93
2018-04-06T02:17:34.111Z,17.10
2018-04-06T02:20:04.932Z,19.70
2018-04-06T02:22:36.795Z,14.23
2018-04-06T02:25:08.199Z,18.23
2018-04-06T02:27:39.760Z,18.77
2018-04-06T02:30:11.289Z,15.03
2018-04-06T02:32:42.569Z,14.83
2018-04-06T02:35:20.268Z,16.63
2018-04-06T02:37:51.960Z,13.83
2018-04-06T02:40:24.272Z,22.57
2018-04-06T02:42:55.667Z,22.93
2018-04-06T02:45:26.763Z,16.33
2018-04-06T02:47:57.906Z,16.77
2018-04-06T02:50:30.265Z,15.67
2018-04-06T02:53:02.689Z,17.43
2018-04-06T02:55:34.591Z,14.27
2018-04-06T02:58:06.848Z,20.57
2018-04-06T03:00:38.178Z,17.37
2018-04-06T03:03:09.737Z,22.10
2018-04-06T03:05:41.060Z,14.93
2018-04-06T03:08:12.296Z,16.23
2018-04-06T03:10:44.040Z,19.70
2018-04-06T03:13:15.282Z,18.27
2018-04-06T03:15:46.267Z,18.63
2018-04-06T03:18:18.829Z,19.10
2018-04-06T03:20:51.107Z,21.90
2018-04-06T03:23:22.567Z,17.20
2018-04-06T03:25:53.883Z,20.17
2018-04-06T03:28:25.015Z,18.90
2018-04-06T03:30:56.445Z,18.80
2018-04-06T03:33:27.428Z,22.17
2018-04-06T03:35:59.963Z,22.63
2018-04-06T03:38:31.103Z,22.47
2018-04-06T03:41:02.349Z,25.50
2018-04-06T03:43:33.693Z,20.13
2018-04-06T03:46:05.321Z,17.13
2018-04-06T03:48:38.485Z,16.97
2018-04-06T03:51:10.167Z,20.53
2018-04-06T03:53:41.445Z,15.60
2018-04-06T03:56:12.253Z,20.60
2018-04-06T03:58:44.203Z,22.03
2018-04-06T04:01:17.076Z,19.27
2018-04-06T04:03:48.718Z,23.10
2018-04-06T04:06:19.971Z,19.47
2018-04-06T04:08:51.412Z,25.00
2018-04-06T04:11:22.214Z,22.33
2018-04-06T04:13:53.291Z,22.23
2018-04-06T04:16:24.489Z,22.80
2018-04-06T04:18:55.929Z,20.20
2018-04-06T04:21:27.235Z,21.37
2018-04-06T04:23:58.206Z,23.27
2018-04-06T04:26:29.355Z,22.43
2018-04-06T04:29:00.579Z,24.37
2018-04-06T04:31:31.871Z,28.40
2018-04-06T04:34:03.243Z,29.10
2018-04-06T04:36:34.482Z,23.37
2018-04-06T04:39:06.666Z,27.37
2018-04-06T04:41:38.181Z,25.57
2018-04-06T04:44:09.169Z,25.10
2018-04-06T04:46:40.544Z,24.40
2018-04-06T04:49:12.145Z,22.60
2018-04-06T04:51:43.257Z,23.57
2018-04-06T04:54:14.820Z,27.33
2018-04-06T04:56:46.432Z,27.47
2018-04-06T04:59:17.481Z,23.73
2018-04-06T05:01:49.170Z,24.53
2018-04-06T05:04:21.111Z,27.57
2018-04-06T05:06:52.362Z,24.23
2018-04-06T05:09:24.352Z,24.50
2018-04-06T05:11:55.914Z,22.23
2018-04-06T05:14:27.801Z,26.17
2018-04-06T05:16:58.927Z,21.80
2018-04-06T05:19:30.394Z,20.00
2018-04-06T05:22:01.277Z,23.90
2018-04-06T05:24:32.063Z,23.47
2018-04-06T05:27:03.006Z,23.67
2018-04-06T05:29:33.904Z,23.83
2018-04-06T05:32:04.517Z,32.83
2018-04-06T05:34:35.701Z,25.30
2018-04-06T05:37:06.714Z,22.00
2018-04-06T05:39:37.799Z,24.10
2018-04-06T05:42:08.559Z,20.23
2018-04-06T05:44:38.811Z,17.20
2018-04-06T05:47:09.626Z,19.03
2018-04-06T05:49:40.866Z,19.73
2018-04-06T05:52:11.637Z,18.53
2018-04-06T05:54:42.626Z,21.13
2018-04-06T05:57:13.842Z,13.83
2018-04-06T05:59:44.575Z,18.10
2018-04-06T06:02:15.672Z,16.80
2018-04-06T06:04:46.850Z,18.43
2018-04-06T06:07:17.826Z,12.83
2018-04-06T06:09:49.705Z,10.70
2018-04-06T06:12:20.635Z,13.77
2018-04-06T06:14:51.797Z,10.30
2018-04-06T06:17:22.794Z,13.43
2018-04-06T06:19:53.739Z,11.07
2018-04-06T06:22:24.344Z,9.67
2018-04-06T06:24:54.573Z,9.80
2018-04-06T06:27:25.402Z,10.53
2018-04-06T06:29:55.736Z,13.80
2018-04-06T06:32:25.851Z,11.33
2018-04-06T06:34:55.938Z,11.43
2018-04-06T06:37:26.140Z,13.57
2018-04-06T06:39:56.186Z,11.27
2018-04-06T06:42:26.213Z,10.77
2018-04-06T06:44:56.237Z,11.73
2018-04-06T06:47:26.173Z,9.67
2018-04-06T06:49:56.203Z,10.57
2018-04-06T06:52:27.033Z,8.90
2018-04-06T06:54:57.150Z,10.27
2018-04-06T06:57:26.869Z,10.17
2018-04-06T06:59:57.384Z,10.13
2018-04-06T07:02:27.214Z,11.73
2018-04-06T07:04:57.800Z,13.57
2018-04-06T07:07:27.458Z,10.07
2018-04-06T07:09:57.198Z,10.40
2018-04-06T07:12:26.973Z,10.83
2018-04-06T07:14:56.687Z,10.30
2018-04-06T07:17:27.182Z,8.60
2018-04-06T07:19:56.788Z,11.00
2018-04-06T07:22:26.588Z,11.83
2018-04-06T07:24:56.350Z,9.83
2018-04-06T07:27:26.024Z,10.87
2018-04-06T07:29:56.620Z,9.10
2018-04-06T07:32:26.761Z,10.20
2018-04-06T07:34:58.755Z,11.13
2018-04-06T07:37:28.539Z,8.80
2018-04-06T07:40:02.200Z,10.83
2018-04-06T07:42:31.922Z,12.17
2018-04-06T07:45:01.627Z,13.37
2018-04-06T07:47:32.010Z,9.53
2018-04-06T07:50:02.619Z,11.10
2018-04-06T07:52:33.195Z,10.30
2018-04-06T07:55:03.488Z,8.57
2018-04-06T07:57:34.385Z,8.60
2018-04-06T08:00:04.472Z,8.80
2018-04-06T08:02:34.476Z,6.80
2018-04-06T08:05:04.748Z,7.47
2018-04-06T08:07:35.458Z,9.53
2018-04-06T08:10:05.531Z,7.60
2018-04-06T08:12:35.834Z,9.93
2018-04-06T08:15:06.595Z,7.93
2018-04-06T08:17:39.272Z,7.63
2018-04-06T08:20:09.983Z,8.83
2018-04-06T08:22:40.436Z,7.80
2018-04-06T08:25:10.171Z,8.87
2018-04-06T08:27:39.770Z,7.87
2018-04-06T08:30:09.867Z,7.27
2018-04-06T08:32:39.579Z,7.40
2018-04-06T08:35:09.323Z,7.13
2018-04-06T08:37:38.884Z,8.33
2018-04-06T08:40:09.230Z,6.00
2018-04-06T08:42:39.487Z,7.73
2018-04-06T08:45:09.832Z,8.20
2018-04-06T08:47:40.303Z,5.80
2018-04-06T08:50:10.643Z,6.63
2018-04-06T08:52:40.684Z,7.83
2018-04-06T08:55:10.288Z,6.77
2018-04-06T08:57:40.609Z,9.40
2018-04-06T09:00:10.289Z,10.53
2018-04-06T09:02:39.786Z,5.53
2018-04-06T09:05:09.384Z,6.97
2018-04-06T09:07:39.019Z,6.80
2018-04-06T09:10:08.987Z,7.13
2018-04-06T09:12:38.661Z,6.10
2018-04-06T09:15:08.347Z,5.43
2018-04-06T09:17:39.263Z,5.17
2018-04-06T09:20:12.346Z,5.43
2018-04-06T09:22:42.828Z,5.47
2018-04-06T09:25:13.194Z,7.80
2018-04-06T09:27:43.522Z,5.33
2018-04-06T09:30:13.851Z,8.43
2018-04-06T09:32:44.135Z,5.27
2018-04-06T09:35:14.487Z,6.57
2018-04-06T09:37:44.888Z,6.03
2018-04-06T09:40:15.303Z,8.43
2018-04-06T09:42:45.635Z,7.77
2018-04-06T09:45:18.269Z,4.63
2018-04-06T09:47:48.636Z,5.17
2018-04-06T09:50:20.071Z,5.60
2018-04-06T09:52:50.250Z,5.20
2018-04-06T09:55:20.533Z,5.63
2018-04-06T09:57:50.890Z,6.53
2018-04-06T10:00:25.394Z,5.67
2018-04-06T10:02:57.174Z,7.10
2018-04-06T10:05:27.493Z,5.43
2018-04-06T10:07:57.552Z,6.23
2018-04-06T10:10:27.945Z,6.73
2018-04-06T10:12:58.323Z,5.57
2018-04-06T10:15:28.875Z,5.27
2018-04-06T10:17:59.172Z,6.30
2018-04-06T10:20:31.837Z,5.57
2018-04-06T10:23:02.173Z,6.90
2018-04-06T10:25:32.807Z,3.90
2018-04-06T10:28:03.121Z,6.60
2018-04-06T10:30:34.447Z,5.47
2018-04-06T10:33:04.879Z,5.33
2018-04-06T10:35:35.110Z,7.37
2018-04-06T10:38:05.540Z,3.87
2018-04-06T10:40:35.866Z,4.53
2018-04-06T10:43:06.174Z,4.77
2018-04-06T10:45:36.529Z,4.93
2018-04-06T10:48:13.442Z,3.47
2018-04-06T10:50:43.955Z,5.03
2018-04-06T10:53:14.333Z,4.43
2018-04-06T10:55:44.569Z,5.33
2018-04-06T10:58:15.279Z,4.20
2018-04-06T11:00:51.790Z,5.30
2018-04-06T11:03:22.419Z,5.00
2018-04-06T11:05:52.932Z,6.27
2018-04-06T11:08:23.490Z,6.57
2018-04-06T11:10:54.154Z,3.70
2018-04-06T11:13:24.768Z,4.23
2018-04-06T11:15:55.594Z,4.13
2018-04-06T11:18:26.340Z,4.10
2018-04-06T11:20:56.752Z,4.70
2018-04-06T11:23:27.206Z,4.23
2018-04-06T11:25:57.809Z,5.37
2018-04-06T11:28:29.066Z,3.20
2018-04-06T11:30:59.584Z,4.73
2018-04-06T11:33:30.138Z,5.10
2018-04-06T11:36:00.743Z,3.70
2018-04-06T11:38:31.284Z,6.63
2018-04-06T11:41:03.833Z,4.03
2018-04-06T11:43:38.166Z,5.00
2018-04-06T11:46:09.423Z,4.50
2018-04-06T11:48:40.669Z,5.20
2018-04-06T11:51:11.377Z,3.33
2018-04-06T11:53:42.007Z,3.80
2018-04-06T11:56:12.960Z,5.40
2018-04-06T11:58:43.425Z,3.47
2018-04-06T12:01:13.896Z,4.13
2018-04-06T12:03:44.433Z,3.60
2018-04-06T12:06:14.957Z,6.07
2018-04-06T12:08:45.763Z,5.03
2018-04-06T12:11:16.698Z,4.93
2018-04-06T12:13:47.328Z,4.30
2018-04-06T12:16:18.213Z,3.93
2018-04-06T12:18:48.947Z,3.43
2018-04-06T12:21:19.629Z,3.77
2018-04-06T12:23:50.139Z,5.47
2018-04-06T12:26:21.474Z,4.97
2018-04-06T12:28:52.608Z,4.93
2018-04-06T12:31:23.003Z,5.17
2018-04-06T12:33:54.526Z,6.60
2018-04-06T12:39:10.637Z,5.07
2018-04-06T12:41:41.532Z,4.30
2018-04-06T12:44:11.902Z,5.00
2018-04-06T12:46:42.883Z,4.93
2018-04-06T12:49:13.343Z,5.20
2018-04-06T12:51:44.970Z,4.77
2018-04-06T12:54:19.428Z,4.80
2018-04-06T12:56:50.067Z,4.93
2018-04-06T12:59:20.467Z,4.30
2018-04-06T13:01:50.980Z,9.07
2018-04-06T13:04:21.633Z,3.60
2018-04-06T13:06:52.160Z,3.03
2018-04-06T13:09:22.265Z,3.37
2018-04-06T13:11:52.828Z,2.73
2018-04-06T13:14:23.285Z,4.40
2018-04-06T13:17:00.033Z,3.07
2018-04-06T13:19:30.111Z,3.53
2018-04-06T13:22:00.266Z,4.23
2018-04-06T13:24:30.791Z,3.80
2018-04-06T13:27:00.821Z,4.97
2018-04-06T13:29:31.378Z,4.53
2018-04-06T13:32:01.936Z,6.03
2018-04-06T13:34:33.405Z,4.63
2018-04-06T13:37:03.996Z,8.53
2018-04-06T13:39:34.395Z,4.20
2018-04-06T13:42:11.668Z,4.10
2018-04-06T13:44:42.168Z,5.03
2018-04-06T13:47:13.105Z,4.20
2018-04-06T13:49:43.709Z,3.23
2018-04-06T13:52:14.206Z,4.90
2018-04-06T13:54:45.249Z,7.30
2018-04-06T13:57:17.100Z,4.83
2018-04-06T13:59:47.720Z,4.23
2018-04-06T14:02:19.957Z,3.70
2018-04-06T14:05:00.645Z,5.23
2018-04-06T14:07:31.678Z,4.80
2018-04-06T14:10:02.740Z,5.07
2018-04-06T14:12:34.635Z,3.93
2018-04-06T14:15:06.361Z,4.03
2018-04-06T14:17:37.996Z,4.77
2018-04-06T14:20:08.707Z,3.40
2018-04-06T14:22:39.250Z,3.60
2018-04-06T14:25:09.795Z,7.53
2018-04-06T14:27:40.345Z,5.00
2018-04-06T14:30:11.105Z,3.10
2018-04-06T14:32:41.964Z,3.60
2018-04-06T14:35:12.119Z,4.40
2018-04-06T14:37:42.907Z,4.50
2018-04-06T14:40:13.371Z,3.93
2018-04-06T14:42:44.050Z,4.90
2018-04-06T14:45:14.510Z,3.17
2018-04-06T14:47:44.960Z,3.40
2018-04-06T14:50:15.443Z,5.67
2018-04-06T14:52:46.015Z,3.20
2018-04-06T14:55:16.594Z,4.17
2018-04-06T14:57:47.110Z,3.73
2018-04-06T15:00:17.717Z,4.23
2018-04-06T15:02:51.256Z,3.37
2018-04-06T15:05:21.778Z,5.23
2018-04-06T15:07:52.262Z,5.13
2018-04-06T15:10:22.773Z,7.10
2018-04-06T15:12:53.388Z,3.53
2018-04-06T15:15:23.775Z,4.07
2018-04-06T15:17:54.454Z,3.43
2018-04-06T15:20:24.923Z,5.20
2018-04-06T15:22:55.718Z,3.23
2018-04-06T15:25:26.167Z,5.13
2018-04-06T15:27:56.700Z,4.53
2018-04-06T15:30:26.888Z,4.33
2018-04-06T15:32:57.424Z,4.00
2018-04-06T15:35:27.961Z,3.47
2018-04-06T15:37:58.413Z,4.73
2018-04-06T15:40:28.804Z,5.03
2018-04-06T15:42:59.618Z,3.70
2018-04-06T15:45:30.205Z,6.23
2018-04-06T15:48:00.342Z,4.20
2018-04-06T15:50:36.566Z,5.67
2018-04-06T15:53:07.365Z,5.00
2018-04-06T15:55:37.817Z,4.73
2018-04-06T15:58:09.270Z,7.10
2018-04-06T16:00:40.327Z,4.67
2018-04-06T16:03:10.981Z,5.47
2018-04-06T16:05:41.478Z,4.97
2018-04-06T16:08:11.954Z,4.53
2018-04-06T16:10:42.395Z,5.13
2018-04-06T16:13:13.228Z,5.23
2018-04-06T16:15:43.658Z,5.27
2018-04-06T16:18:15.112Z,4.93
2018-04-06T16:20:45.587Z,4.23
2018-04-06T16:23:18.696Z,6.33
2018-04-06T16:25:49.320Z,7.27
2018-04-06T16:28:19.901Z,5.43
2018-04-06T16:30:54.245Z,7.10
2018-04-06T16:33:24.738Z,7.17
2018-04-06T16:35:55.225Z,4.93
2018-04-06T16:38:25.732Z,5.57
2018-04-06T16:40:56.246Z,5.37
2018-04-06T16:43:26.925Z,5.07
2018-04-06T16:45:57.468Z,5.13
2018-04-06T16:48:28.265Z,6.87
2018-04-06T16:50:59.015Z,7.53
2018-04-06T16:53:29.987Z,7.80
2018-04-06T16:56:00.526Z,4.90
2018-04-06T16:58:30.983Z,5.13
2018-04-06T17:01:01.609Z,4.93
2018-04-06T17:03:32.209Z,6.67
2018-04-06T17:06:02.690Z,6.03
2018-04-06T17:08:33.202Z,5.63
2018-04-06T17:11:04.062Z,6.23
2018-04-06T17:13:37.256Z,5.47
2018-04-06T17:16:08.052Z,6.60
2018-04-06T17:18:38.865Z,5.97
2018-04-06T17:21:09.385Z,7.53
2018-04-06T17:23:39.747Z,5.77
2018-04-06T17:26:10.187Z,7.27
2018-04-06T17:28:40.762Z,7.17
2018-04-06T17:31:11.242Z,7.40
2018-04-06T17:33:42.505Z,9.00
2018-04-06T17:36:19.271Z,7.10
2018-04-06T17:38:49.758Z,5.63
2018-04-06T17:41:20.190Z,10.23
2018-04-06T17:43:50.756Z,7.07
2018-04-06T17:46:21.390Z,6.27
2018-04-06T17:48:52.048Z,5.30
2018-04-06T17:51:22.544Z,5.83
2018-04-06T17:53:54.002Z,5.50
2018-04-06T17:56:24.424Z,6.40
2018-04-06T17:58:54.953Z,9.07
2018-04-06T18:01:25.807Z,4.80
2018-04-06T18:03:56.391Z,8.37
2018-04-06T18:06:26.895Z,5.53
2018-04-06T18:08:57.414Z,7.40
2018-04-06T18:11:27.818Z,6.03
2018-04-06T18:13:59.496Z,5.20
2018-04-06T18:16:29.898Z,7.77
2018-04-06T18:19:00.733Z,9.97
2018-04-06T18:21:31.244Z,4.43
2018-04-06T18:24:01.762Z,6.43
2018-04-06T18:26:32.228Z,5.07
2018-04-06T18:29:02.655Z,5.70
2018-04-06T18:31:33.278Z,7.50
2018-04-06T18:34:03.702Z,6.27
2018-04-06T18:36:35.359Z,8.60
2018-04-06T18:39:06.454Z,22.37
2018-04-06T18:41:36.893Z,14.60
2018-04-06T18:44:07.705Z,14.50
2018-04-06T18:46:38.195Z,12.10
2018-04-06T18:49:08.956Z,7.47
2018-04-06T18:51:39.373Z,7.07
2018-04-06T18:54:10.206Z,6.97
2018-04-06T18:56:40.825Z,8.63
2018-04-06T18:59:11.477Z,10.23
2018-04-06T19:01:41.575Z,11.13
2018-04-06T19:04:12.120Z,10.87
2018-04-06T19:06:42.618Z,10.53
2018-04-06T19:09:13.117Z,10.93
2018-04-06T19:11:43.631Z,8.93
2018-04-06T19:14:14.868Z,11.90
2018-04-06T19:16:45.400Z,11.73
2018-04-06T19:19:16.280Z,9.03
2018-04-06T19:21:47.554Z,9.07
2018-04-06T19:24:18.187Z,7.10
2018-04-06T19:26:48.641Z,8.17
2018-04-06T19:29:19.580Z,10.57
2018-04-06T19:31:50.025Z,8.73
2018-04-06T19:34:20.512Z,9.07
2018-04-06T19:36:50.987Z,6.17
2018-04-06T19:39:21.479Z,5.97
2018-04-06T19:41:52.905Z,7.43
2018-04-06T19:44:23.574Z,7.23
2018-04-06T19:46:54.002Z,5.67
2018-04-06T19:49:24.694Z,5.37
2018-04-06T19:51:55.141Z,8.07
2018-04-06T19:54:26.882Z,5.50
2018-04-06T19:56:57.326Z,4.30
2018-04-06T19:59:27.926Z,5.13
2018-04-06T20:01:58.547Z,5.33
2018-04-06T20:04:29.397Z,5.30
2018-04-06T20:06:59.839Z,5.33
2018-04-06T20:09:30.359Z,4.93
2018-04-06T20:12:00.854Z,6.10
2018-04-06T20:14:31.410Z,6.50
2018-04-06T20:17:01.986Z,5.93
2018-04-06T20:19:33.303Z,4.60
2018-04-06T20:22:03.756Z,5.50
2018-04-06T20:24:35.403Z,6.57
2018-04-06T20:27:05.842Z,4.63
2018-04-06T20:29:36.632Z,5.17
2018-04-06T20:32:07.101Z,7.10
2018-04-06T20:34:38.104Z,9.37
2018-04-06T20:37:08.818Z,7.17
2018-04-06T20:39:39.315Z,6.13
2018-04-06T20:42:09.733Z,6.37
2018-04-06T20:44:40.281Z,7.20
2018-04-06T20:47:10.720Z,5.83
2018-04-06T20:49:41.409Z,5.93
2018-04-06T20:52:11.893Z,4.67
2018-04-06T20:54:41.524Z,4.40
2018-04-06T20:57:12.799Z,5.53
2018-04-06T20:59:43.606Z,6.87
2018-04-06T21:02:14.083Z,6.43
2018-04-06T21:04:44.485Z,7.50
2018-04-06T21:07:15.090Z,4.73
2018-04-06T21:09:45.507Z,5.37
2018-04-06T21:12:16.006Z,7.03
2018-04-06T21:14:46.716Z,8.70
2018-04-06T21:17:17.290Z,5.27
2018-04-06T21:19:48.088Z,4.17
2018-04-06T21:22:18.386Z,6.07
2018-04-06T21:24:48.707Z,5.83
2018-04-06T21:27:19.271Z,4.47
2018-04-06T21:29:50.726Z,6.23
2018-04-06T21:32:20.904Z,5.37
2018-04-06T21:34:51.433Z,4.97
2018-04-06T21:37:21.508Z,4.97
2018-04-06T21:39:51.889Z,4.83
2018-04-06T21:42:22.449Z,4.20
2018-04-06T21:44:53.187Z,5.87
2018-04-06T21:47:23.705Z,5.57
2018-04-06T21:49:54.236Z,5.97
2018-04-06T21:52:24.434Z,7.90
2018-04-06T21:54:54.774Z,7.07
2018-04-06T21:57:25.380Z,5.73
2018-04-06T21:59:55.885Z,4.83
2018-04-06T22:02:26.442Z,6.87
2018-04-06T22:04:56.909Z,5.30
2018-04-06T22:07:27.402Z,6.43
2018-04-06T22:09:58.023Z,4.50
2018-04-06T22:12:28.669Z,4.63
2018-04-06T22:14:59.346Z,4.73
2018-04-06T22:17:29.765Z,5.13
2018-04-06T22:20:00.606Z,6.30
2018-04-06T22:22:31.062Z,6.50
2018-04-06T22:25:01.532Z,6.23
2018-04-06T22:27:31.994Z,5.67
2018-04-06T22:30:02.437Z,6.87
2018-04-06T22:32:32.912Z,5.00
2018-04-06T22:35:03.366Z,5.57
2018-04-06T22:37:33.901Z,5.17
2018-04-06T22:40:04.435Z,6.10
2018-04-06T22:42:35.021Z,6.60
2018-04-06T22:45:06.067Z,5.00
2018-04-06T22:47:36.898Z,4.37
2018-04-06T22:50:07.381Z,7.10
2018-04-06T22:52:37.996Z,5.00
2018-04-06T22:55:08.695Z,5.70
2018-04-06T22:57:39.255Z,5.73
2018-04-06T23:00:09.959Z,5.50
2018-04-06T23:02:40.976Z,5.63
2018-04-06T23:05:12.122Z,5.50
2018-04-06T23:07:42.658Z,3.73
2018-04-06T23:10:12.710Z,3.97
2018-04-06T23:12:42.819Z,7.00
2018-04-06T23:15:12.913Z,5.50
2018-04-06T23:17:43.355Z,5.50
2018-04-06T23:20:13.688Z,5.90
2018-04-06T23:22:44.255Z,5.80
2018-04-06T23:25:15.388Z,5.50
2018-04-06T23:27:45.916Z,6.63
2018-04-06T23:30:16.708Z,5.30
2018-04-06T23:32:47.195Z,5.50
2018-04-06T23:35:18.199Z,5.90
2018-04-06T23:37:48.633Z,5.00
2018-04-06T23:40:19.198Z,5.13
2018-04-06T23:42:49.680Z,5.27
2018-04-06T23:45:20.395Z,5.47
2018-04-06T23:47:50.756Z,5.33
2018-04-06T23:50:21.496Z,5.00
2018-04-06T23:52:52.057Z,6.47
2018-04-06T23:55:22.973Z,5.60
2018-04-06T23:57:53.675Z,6.10
